Terminal Aerodrome Forecast
Issued by NWS Caribou, ME

Home | Current Version | Previous Version | Text Only | Print | Product List | Glossary On
Versions: 1 2 3 4 5 6 7 8 9 10 11 12 13 14 15 16 17 18
000
FTUS41 KCAR 040314 AAA
TAFBGR
TAF AMD
KBGR 040314Z 0403/0424 17012G20KT 3/4SM -SN BR OVC012
     FM040500 17012KT 1SM -SN BR OVC008
     FM040700 19011KT 3SM -SN BR OVC003
     FM041100 20010G20KT P6SM OVC015
     FM041400 22010G17KT P6SM BKN050=

USA.gov is the U.S. government's official web portal to all federal, state and local government web resources and services.